Nearby METAR Reports

 

YSRI - Richmond (aus-Af, Australia
Distance from station: SW 65km
Updated: 24/09/2021 19:30
Clear
Clear
 Wind from N
Wind: N 9 km/h
Temperature: 19°C
Dew Point: 5°C
Humidity: 40%
Barometer: 1011 hPa
Clouds: Clear
Visibility: 10 km
2021/09/24 09:30 YSRI 240930Z AUTO 35005KT 9999 // NCD 19/05 Q1011 RF00.0/000.0
YWLM - Williamtown Arp, Australia
Distance from station: NE 69km
Updated: 24/09/2021 19:30
Clear
Clear
 Wind from WNW
Wind: WNW 13 km/h
Temperature: 19°C
Dew Point: 7°C
Humidity: 46%
Barometer: 1011 hPa
Clouds: Clear
Visibility: 10 km
2021/09/24 09:30 YWLM 240930Z AUTO 30007KT 9999 // NCD 19/07 Q1011
 
YSSY - Sydney Intl Airp, Australia
Distance from station: SSW 77km
Updated: 24/09/2021 19:30
Clear
Clear
 Wind from NW
Wind: NW 19 km/h
Temperature: 23°C
Dew Point: 1°C
Humidity: 23%
Barometer: 1010 hPa
Summary: Clear
Visibility: greater than 10 km
2021/09/24 09:30 YSSY 240930Z 31010KT CAVOK 23/01 Q1010